sensor_id;sensor_type;location;lat;lon;timestamp;P1;durP1;ratioP1;P2;durP2;ratioP2
67053;SDS011;53960;51.826;5.850;2023-11-21T00:01:44;19.73;;;8.07;;
67053;SDS011;53960;51.826;5.850;2023-11-21T00:04:09;18.10;;;8.40;;
67053;SDS011;53960;51.826;5.850;2023-11-21T00:06:35;15.73;;;7.27;;
67053;SDS011;53960;51.826;5.850;2023-11-21T00:09:00;17.77;;;7.87;;
67053;SDS011;53960;51.826;5.850;2023-11-21T00:11:26;18.57;;;7.20;;
67053;SDS011;53960;51.826;5.850;2023-11-21T00:13:51;17.23;;;8.05;;
67053;SDS011;53960;51.826;5.850;2023-11-21T00:16:16;24.07;;;8.17;;
67053;SDS011;53960;51.826;5.850;2023-11-21T00:18:42;18.73;;;7.57;;
67053;SDS011;53960;51.826;5.850;2023-11-21T00:21:08;20.07;;;8.13;;
67053;SDS011;53960;51.826;5.850;2023-11-21T00:23:34;19.07;;;8.20;;
67053;SDS011;53960;51.826;5.850;2023-11-21T00:26:00;19.92;;;9.15;;
67053;SDS011;53960;51.826;5.850;2023-11-21T00:28:26;15.90;;;7.63;;
67053;SDS011;53960;51.826;5.850;2023-11-21T00:30:51;17.90;;;8.30;;
67053;SDS011;53960;51.826;5.850;2023-11-21T00:33:17;17.43;;;8.27;;
67053;SDS011;53960;51.826;5.850;2023-11-21T00:35:42;16.83;;;8.02;;
67053;SDS011;53960;51.826;5.850;2023-11-21T00:38:07;21.03;;;8.40;;
67053;SDS011;53960;51.826;5.850;2023-11-21T00:40:33;19.80;;;8.07;;
67053;SDS011;53960;51.826;5.850;2023-11-21T00:42:59;23.70;;;9.73;;
67053;SDS011;53960;51.826;5.850;2023-11-21T00:45:24;20.70;;;8.47;;
67053;SDS011;53960;51.826;5.850;2023-11-21T00:47:50;19.48;;;8.75;;
67053;SDS011;53960;51.826;5.850;2023-11-21T00:50:16;18.63;;;8.23;;
67053;SDS011;53960;51.826;5.850;2023-11-21T00:52:41;22.57;;;9.20;;
67053;SDS011;53960;51.826;5.850;2023-11-21T00:55:07;22.97;;;8.50;;
67053;SDS011;53960;51.826;5.850;2023-11-21T00:57:33;19.90;;;8.88;;
67053;SDS011;53960;51.826;5.850;2023-11-21T00:59:59;22.13;;;8.95;;
67053;SDS011;53960;51.826;5.850;2023-11-21T01:02:25;21.77;;;9.17;;
67053;SDS011;53960;51.826;5.850;2023-11-21T01:04:50;20.67;;;8.40;;
67053;SDS011;53960;51.826;5.850;2023-11-21T01:07:16;20.17;;;8.87;;
67053;SDS011;53960;51.826;5.850;2023-11-21T01:09:42;21.63;;;9.52;;
67053;SDS011;53960;51.826;5.850;2023-11-21T01:12:09;24.92;;;9.77;;
67053;SDS011;53960;51.826;5.850;2023-11-21T01:14:34;21.17;;;8.77;;
67053;SDS011;53960;51.826;5.850;2023-11-21T01:17:00;20.05;;;8.77;;
67053;SDS011;53960;51.826;5.850;2023-11-21T01:19:25;22.00;;;8.80;;
67053;SDS011;53960;51.826;5.850;2023-11-21T01:21:51;23.17;;;9.43;;
67053;SDS011;53960;51.826;5.850;2023-11-21T01:24:17;22.48;;;9.00;;
67053;SDS011;53960;51.826;5.850;2023-11-21T01:26:43;24.90;;;9.27;;
67053;SDS011;53960;51.826;5.850;2023-11-21T01:29:10;22.60;;;9.25;;
67053;SDS011;53960;51.826;5.850;2023-11-21T01:31:36;20.33;;;9.20;;
67053;SDS011;53960;51.826;5.850;2023-11-21T01:34:01;21.65;;;8.50;;
67053;SDS011;53960;51.826;5.850;2023-11-21T01:36:30;24.47;;;9.80;;
67053;SDS011;53960;51.826;5.850;2023-11-21T01:38:57;26.70;;;9.87;;
67053;SDS011;53960;51.826;5.850;2023-11-21T01:41:24;25.45;;;9.60;;
67053;SDS011;53960;51.826;5.850;2023-11-21T01:43:52;23.00;;;9.82;;
67053;SDS011;53960;51.826;5.850;2023-11-21T01:46:18;25.23;;;10.35;;
67053;SDS011;53960;51.826;5.850;2023-11-21T01:48:45;28.92;;;10.85;;
67053;SDS011;53960;51.826;5.850;2023-11-21T01:51:11;27.13;;;9.67;;
67053;SDS011;53960;51.826;5.850;2023-11-21T01:53:36;25.70;;;10.87;;
67053;SDS011;53960;51.826;5.850;2023-11-21T01:56:02;29.33;;;10.93;;
67053;SDS011;53960;51.826;5.850;2023-11-21T01:58:28;28.42;;;11.25;;
67053;SDS011;53960;51.826;5.850;2023-11-21T02:00:54;26.77;;;11.13;;
67053;SDS011;53960;51.826;5.850;2023-11-21T02:03:20;29.70;;;12.02;;
67053;SDS011;53960;51.826;5.850;2023-11-21T02:05:45;31.00;;;11.73;;
67053;SDS011;53960;51.826;5.850;2023-11-21T02:08:11;30.43;;;11.63;;
67053;SDS011;53960;51.826;5.850;2023-11-21T02:10:36;33.92;;;12.02;;
67053;SDS011;53960;51.826;5.850;2023-11-21T02:13:02;32.97;;;12.17;;
67053;SDS011;53960;51.826;5.850;2023-11-21T02:15:28;31.65;;;11.65;;
67053;SDS011;53960;51.826;5.850;2023-11-21T02:17:54;34.40;;;11.32;;
67053;SDS011;53960;51.826;5.850;2023-11-21T02:20:21;29.20;;;11.82;;
67053;SDS011;53960;51.826;5.850;2023-11-21T02:22:49;35.63;;;12.25;;
67053;SDS011;53960;51.826;5.850;2023-11-21T02:25:18;42.20;;;11.37;;
67053;SDS011;53960;51.826;5.850;2023-11-21T02:27:43;43.33;;;11.48;;
67053;SDS011;53960;51.826;5.850;2023-11-21T02:30:13;45.90;;;12.57;;
67053;SDS011;53960;51.826;5.850;2023-11-21T02:32:39;38.35;;;11.35;;
67053;SDS011;53960;51.826;5.850;2023-11-21T02:35:05;46.00;;;11.85;;
67053;SDS011;53960;51.826;5.850;2023-11-21T02:37:32;30.42;;;11.43;;
67053;SDS011;53960;51.826;5.850;2023-11-21T02:39:58;48.93;;;12.17;;
67053;SDS011;53960;51.826;5.850;2023-11-21T02:42:24;37.78;;;12.13;;
67053;SDS011;53960;51.826;5.850;2023-11-21T02:44:50;33.37;;;12.53;;
67053;SDS011;53960;51.826;5.850;2023-11-21T02:47:15;29.40;;;11.10;;
67053;SDS011;53960;51.826;5.850;2023-11-21T02:49:40;33.80;;;11.10;;
67053;SDS011;53960;51.826;5.850;2023-11-21T02:52:06;34.58;;;10.63;;
67053;SDS011;53960;51.826;5.850;2023-11-21T02:54:31;42.40;;;11.30;;
67053;SDS011;53960;51.826;5.850;2023-11-21T02:57:01;36.72;;;11.80;;
67053;SDS011;53960;51.826;5.850;2023-11-21T02:59:27;41.77;;;11.20;;
67053;SDS011;53960;51.826;5.850;2023-11-21T03:01:52;31.52;;;10.52;;
67053;SDS011;53960;51.826;5.850;2023-11-21T03:04:18;32.33;;;11.00;;
67053;SDS011;53960;51.826;5.850;2023-11-21T03:06:44;38.78;;;10.45;;
67053;SDS011;53960;51.826;5.850;2023-11-21T03:09:10;31.90;;;10.37;;
67053;SDS011;53960;51.826;5.850;2023-11-21T03:11:37;32.78;;;10.25;;
67053;SDS011;53960;51.826;5.850;2023-11-21T03:14:02;32.43;;;10.07;;
67053;SDS011;53960;51.826;5.850;2023-11-21T03:16:28;43.53;;;10.32;;
67053;SDS011;53960;51.826;5.850;2023-11-21T03:18:54;29.43;;;10.03;;
67053;SDS011;53960;51.826;5.850;2023-11-21T03:21:19;30.05;;;10.85;;
67053;SDS011;53960;51.826;5.850;2023-11-21T03:23:45;30.00;;;10.30;;
67053;SDS011;53960;51.826;5.850;2023-11-21T03:26:13;33.53;;;10.80;;
67053;SDS011;53960;51.826;5.850;2023-11-21T03:28:39;31.15;;;10.60;;
67053;SDS011;53960;51.826;5.850;2023-11-21T03:31:04;29.00;;;10.67;;
67053;SDS011;53960;51.826;5.850;2023-11-21T03:33:31;33.05;;;10.35;;
67053;SDS011;53960;51.826;5.850;2023-11-21T03:35:57;23.20;;;10.60;;
67053;SDS011;53960;51.826;5.850;2023-11-21T03:38:22;29.03;;;10.67;;
67053;SDS011;53960;51.826;5.850;2023-11-21T03:40:48;30.37;;;10.77;;
67053;SDS011;53960;51.826;5.850;2023-11-21T03:43:14;30.42;;;12.48;;
67053;SDS011;53960;51.826;5.850;2023-11-21T03:45:39;26.67;;;10.30;;
67053;SDS011;53960;51.826;5.850;2023-11-21T03:48:06;28.30;;;10.52;;
67053;SDS011;53960;51.826;5.850;2023-11-21T03:50:31;31.77;;;11.43;;
67053;SDS011;53960;51.826;5.850;2023-11-21T03:52:57;38.40;;;11.17;;
67053;SDS011;53960;51.826;5.850;2023-11-21T03:55:22;29.00;;;9.70;;
67053;SDS011;53960;51.826;5.850;2023-11-21T03:57:49;36.17;;;9.90;;
67053;SDS011;53960;51.826;5.850;2023-11-21T04:00:14;35.67;;;10.73;;
67053;SDS011;53960;51.826;5.850;2023-11-21T04:02:41;29.25;;;10.10;;
67053;SDS011;53960;51.826;5.850;2023-11-21T04:05:06;31.27;;;10.30;;
67053;SDS011;53960;51.826;5.850;2023-11-21T04:07:32;27.05;;;10.18;;
67053;SDS011;53960;51.826;5.850;2023-11-21T04:09:57;28.23;;;10.43;;
67053;SDS011;53960;51.826;5.850;2023-11-21T04:12:23;29.73;;;9.73;;
67053;SDS011;53960;51.826;5.850;2023-11-21T04:14:49;28.15;;;9.35;;
67053;SDS011;53960;51.826;5.850;2023-11-21T04:17:17;34.23;;;10.67;;
67053;SDS011;53960;51.826;5.850;2023-11-21T04:19:43;38.90;;;10.43;;
67053;SDS011;53960;51.826;5.850;2023-11-21T04:22:08;29.67;;;9.77;;
67053;SDS011;53960;51.826;5.850;2023-11-21T04:24:33;30.00;;;9.80;;
67053;SDS011;53960;51.826;5.850;2023-11-21T04:26:59;21.60;;;9.80;;
67053;SDS011;53960;51.826;5.850;2023-11-21T04:29:24;34.13;;;10.27;;
67053;SDS011;53960;51.826;5.850;2023-11-21T04:31:49;28.27;;;10.38;;
67053;SDS011;53960;51.826;5.850;2023-11-21T04:34:15;27.80;;;9.43;;
67053;SDS011;53960;51.826;5.850;2023-11-21T04:36:40;28.80;;;9.93;;
67053;SDS011;53960;51.826;5.850;2023-11-21T04:39:05;26.27;;;9.93;;
67053;SDS011;53960;51.826;5.850;2023-11-21T04:41:32;34.35;;;9.68;;
67053;SDS011;53960;51.826;5.850;2023-11-21T04:43:57;31.97;;;9.83;;
67053;SDS011;53960;51.826;5.850;2023-11-21T04:46:23;38.75;;;10.20;;
67053;SDS011;53960;51.826;5.850;2023-11-21T04:48:49;32.13;;;10.33;;
67053;SDS011;53960;51.826;5.850;2023-11-21T04:51:16;39.90;;;11.48;;
67053;SDS011;53960;51.826;5.850;2023-11-21T04:53:41;34.20;;;12.40;;
67053;SDS011;53960;51.826;5.850;2023-11-21T04:56:06;26.90;;;10.87;;
67053;SDS011;53960;51.826;5.850;2023-11-21T04:58:32;34.05;;;11.35;;
67053;SDS011;53960;51.826;5.850;2023-11-21T05:00:58;26.03;;;11.40;;
67053;SDS011;53960;51.826;5.850;2023-11-21T05:03:23;27.57;;;11.70;;
67053;SDS011;53960;51.826;5.850;2023-11-21T05:05:48;28.48;;;11.38;;
67053;SDS011;53960;51.826;5.850;2023-11-21T05:08:14;24.47;;;10.50;;
67053;SDS011;53960;51.826;5.850;2023-11-21T05:10:39;26.03;;;11.67;;
67053;SDS011;53960;51.826;5.850;2023-11-21T05:13:05;31.05;;;11.10;;
67053;SDS011;53960;51.826;5.850;2023-11-21T05:15:35;28.37;;;11.93;;
67053;SDS011;53960;51.826;5.850;2023-11-21T05:18:00;31.27;;;11.73;;
67053;SDS011;53960;51.826;5.850;2023-11-21T05:20:26;24.83;;;11.07;;
67053;SDS011;53960;51.826;5.850;2023-11-21T05:22:51;27.10;;;12.10;;
67053;SDS011;53960;51.826;5.850;2023-11-21T05:25:17;22.80;;;11.23;;
67053;SDS011;53960;51.826;5.850;2023-11-21T05:27:46;28.30;;;11.68;;
67053;SDS011;53960;51.826;5.850;2023-11-21T05:30:13;25.80;;;11.63;;
67053;SDS011;53960;51.826;5.850;2023-11-21T05:32:39;26.92;;;11.63;;
67053;SDS011;53960;51.826;5.850;2023-11-21T05:35:05;25.40;;;11.20;;
67053;SDS011;53960;51.826;5.850;2023-11-21T05:37:37;25.05;;;12.15;;
67053;SDS011;53960;51.826;5.850;2023-11-21T05:40:04;23.02;;;11.48;;
67053;SDS011;53960;51.826;5.850;2023-11-21T05:42:31;24.05;;;11.45;;
67053;SDS011;53960;51.826;5.850;2023-11-21T05:44:57;24.77;;;11.48;;
67053;SDS011;53960;51.826;5.850;2023-11-21T05:47:42;21.73;;;10.87;;
67053;SDS011;53960;51.826;5.850;2023-11-21T05:50:09;22.15;;;10.63;;
67053;SDS011;53960;51.826;5.850;2023-11-21T05:52:40;20.38;;;10.35;;
67053;SDS011;53960;51.826;5.850;2023-11-21T05:55:06;22.15;;;10.55;;
67053;SDS011;53960;51.826;5.850;2023-11-21T05:57:33;20.20;;;10.20;;
67053;SDS011;53960;51.826;5.850;2023-11-21T06:00:01;19.60;;;10.10;;
67053;SDS011;53960;51.826;5.850;2023-11-21T06:02:38;19.85;;;8.80;;
67053;SDS011;53960;51.826;5.850;2023-11-21T06:05:04;17.90;;;9.07;;
67053;SDS011;53960;51.826;5.850;2023-11-21T06:07:30;17.85;;;9.40;;
67053;SDS011;53960;51.826;5.850;2023-11-21T06:09:55;18.17;;;9.27;;
67053;SDS011;53960;51.826;5.850;2023-11-21T06:12:21;18.43;;;9.33;;
67053;SDS011;53960;51.826;5.850;2023-11-21T06:14:46;19.97;;;9.00;;
67053;SDS011;53960;51.826;5.850;2023-11-21T06:17:13;19.15;;;9.20;;
67053;SDS011;53960;51.826;5.850;2023-11-21T06:19:38;20.77;;;10.10;;
67053;SDS011;53960;51.826;5.850;2023-11-21T06:22:03;20.03;;;9.70;;
67053;SDS011;53960;51.826;5.850;2023-11-21T06:24:29;22.17;;;9.83;;
67053;SDS011;53960;51.826;5.850;2023-11-21T06:26:57;20.63;;;8.98;;
67053;SDS011;53960;51.826;5.850;2023-11-21T06:29:23;19.92;;;10.00;;
67053;SDS011;53960;51.826;5.850;2023-11-21T06:31:49;17.57;;;8.83;;
67053;SDS011;53960;51.826;5.850;2023-11-21T06:34:14;19.50;;;9.57;;
67053;SDS011;53960;51.826;5.850;2023-11-21T06:36:39;19.50;;;9.73;;
67053;SDS011;53960;51.826;5.850;2023-11-21T06:39:05;20.27;;;9.67;;
67053;SDS011;53960;51.826;5.850;2023-11-21T06:41:32;21.20;;;9.70;;
67053;SDS011;53960;51.826;5.850;2023-11-21T06:43:58;19.08;;;9.43;;
67053;SDS011;53960;51.826;5.850;2023-11-21T06:46:24;18.77;;;9.33;;
67053;SDS011;53960;51.826;5.850;2023-11-21T06:48:49;21.20;;;9.93;;
67053;SDS011;53960;51.826;5.850;2023-11-21T06:51:15;19.10;;;8.93;;
67053;SDS011;53960;51.826;5.850;2023-11-21T06:53:40;21.27;;;10.15;;
67053;SDS011;53960;51.826;5.850;2023-11-21T06:56:15;19.17;;;9.77;;
67053;SDS011;53960;51.826;5.850;2023-11-21T06:58:41;19.10;;;9.80;;
67053;SDS011;53960;51.826;5.850;2023-11-21T07:01:06;18.00;;;9.37;;
67053;SDS011;53960;51.826;5.850;2023-11-21T07:03:31;19.93;;;9.77;;
67053;SDS011;53960;51.826;5.850;2023-11-21T07:05:56;21.47;;;9.57;;
67053;SDS011;53960;51.826;5.850;2023-11-21T07:08:22;19.03;;;9.77;;
67053;SDS011;53960;51.826;5.850;2023-11-21T07:10:47;19.80;;;9.90;;
67053;SDS011;53960;51.826;5.850;2023-11-21T07:13:12;19.23;;;9.80;;
67053;SDS011;53960;51.826;5.850;2023-11-21T07:15:38;17.97;;;9.23;;
67053;SDS011;53960;51.826;5.850;2023-11-21T07:18:03;21.80;;;9.47;;
67053;SDS011;53960;51.826;5.850;2023-11-21T07:20:32;19.27;;;10.23;;
67053;SDS011;53960;51.826;5.850;2023-11-21T07:22:58;19.23;;;9.53;;
67053;SDS011;53960;51.826;5.850;2023-11-21T07:25:24;18.13;;;9.48;;
67053;SDS011;53960;51.826;5.850;2023-11-21T07:27:51;19.02;;;9.85;;
67053;SDS011;53960;51.826;5.850;2023-11-21T07:30:16;20.80;;;9.80;;
67053;SDS011;53960;51.826;5.850;2023-11-21T07:32:42;20.05;;;10.23;;
67053;SDS011;53960;51.826;5.850;2023-11-21T07:35:09;21.60;;;9.65;;
67053;SDS011;53960;51.826;5.850;2023-11-21T07:37:34;20.13;;;9.77;;
67053;SDS011;53960;51.826;5.850;2023-11-21T07:40:00;20.60;;;9.90;;
67053;SDS011;53960;51.826;5.850;2023-11-21T07:42:25;20.53;;;11.07;;
67053;SDS011;53960;51.826;5.850;2023-11-21T07:44:51;20.65;;;9.43;;
67053;SDS011;53960;51.826;5.850;2023-11-21T07:47:17;19.80;;;9.50;;
67053;SDS011;53960;51.826;5.850;2023-11-21T07:49:42;21.77;;;10.32;;
67053;SDS011;53960;51.826;5.850;2023-11-21T07:52:09;19.00;;;9.57;;
67053;SDS011;53960;51.826;5.850;2023-11-21T07:54:35;18.23;;;9.52;;
67053;SDS011;53960;51.826;5.850;2023-11-21T07:57:00;19.92;;;9.65;;
67053;SDS011;53960;51.826;5.850;2023-11-21T07:59:26;21.43;;;9.97;;
67053;SDS011;53960;51.826;5.850;2023-11-21T08:01:51;22.13;;;10.40;;
67053;SDS011;53960;51.826;5.850;2023-11-21T08:04:17;19.25;;;9.32;;
67053;SDS011;53960;51.826;5.850;2023-11-21T08:06:43;20.53;;;10.60;;
67053;SDS011;53960;51.826;5.850;2023-11-21T08:09:08;22.50;;;10.00;;
67053;SDS011;53960;51.826;5.850;2023-11-21T08:11:37;21.65;;;10.98;;
67053;SDS011;53960;51.826;5.850;2023-11-21T08:14:04;23.57;;;10.20;;
67053;SDS011;53960;51.826;5.850;2023-11-21T08:16:30;22.33;;;11.05;;
67053;SDS011;53960;51.826;5.850;2023-11-21T08:18:55;21.95;;;10.60;;
67053;SDS011;53960;51.826;5.850;2023-11-21T08:21:21;26.67;;;11.57;;
67053;SDS011;53960;51.826;5.850;2023-11-21T08:23:48;23.70;;;11.20;;
67053;SDS011;53960;51.826;5.850;2023-11-21T08:26:18;25.50;;;11.30;;
67053;SDS011;53960;51.826;5.850;2023-11-21T08:28:44;23.67;;;10.43;;
67053;SDS011;53960;51.826;5.850;2023-11-21T08:31:09;24.37;;;11.40;;
67053;SDS011;53960;51.826;5.850;2023-11-21T08:33:34;22.57;;;11.13;;
67053;SDS011;53960;51.826;5.850;2023-11-21T08:36:00;21.70;;;10.40;;
67053;SDS011;53960;51.826;5.850;2023-11-21T08:38:26;25.35;;;10.77;;
67053;SDS011;53960;51.826;5.850;2023-11-21T08:40:53;21.80;;;10.38;;
67053;SDS011;53960;51.826;5.850;2023-11-21T08:43:19;24.13;;;10.85;;
67053;SDS011;53960;51.826;5.850;2023-11-21T08:45:45;23.90;;;11.10;;
67053;SDS011;53960;51.826;5.850;2023-11-21T08:48:10;25.17;;;11.00;;
67053;SDS011;53960;51.826;5.850;2023-11-21T08:50:36;23.67;;;11.43;;
67053;SDS011;53960;51.826;5.850;2023-11-21T08:53:02;24.63;;;11.77;;
67053;SDS011;53960;51.826;5.850;2023-11-21T08:55:27;25.87;;;11.70;;
67053;SDS011;53960;51.826;5.850;2023-11-21T08:57:53;21.77;;;10.85;;
67053;SDS011;53960;51.826;5.850;2023-11-21T09:00:18;24.37;;;10.80;;
67053;SDS011;53960;51.826;5.850;2023-11-21T09:02:44;23.30;;;11.03;;
67053;SDS011;53960;51.826;5.850;2023-11-21T09:05:10;27.00;;;11.88;;
67053;SDS011;53960;51.826;5.850;2023-11-21T09:07:36;25.77;;;11.43;;
67053;SDS011;53960;51.826;5.850;2023-11-21T09:10:04;28.00;;;11.88;;
67053;SDS011;53960;51.826;5.850;2023-11-21T09:12:32;26.25;;;11.73;;
67053;SDS011;53960;51.826;5.850;2023-11-21T09:14:59;25.77;;;11.65;;
67053;SDS011;53960;51.826;5.850;2023-11-21T09:17:26;25.90;;;11.82;;
67053;SDS011;53960;51.826;5.850;2023-11-21T09:19:51;28.20;;;11.87;;
67053;SDS011;53960;51.826;5.850;2023-11-21T09:22:17;27.23;;;11.33;;
67053;SDS011;53960;51.826;5.850;2023-11-21T09:24:42;24.95;;;11.40;;
67053;SDS011;53960;51.826;5.850;2023-11-21T09:27:08;31.87;;;11.87;;
67053;SDS011;53960;51.826;5.850;2023-11-21T09:29:34;25.30;;;12.40;;
67053;SDS011;53960;51.826;5.850;2023-11-21T09:32:00;25.67;;;11.40;;
67053;SDS011;53960;51.826;5.850;2023-11-21T09:34:26;29.90;;;12.75;;
67053;SDS011;53960;51.826;5.850;2023-11-21T09:36:52;25.73;;;11.90;;
67053;SDS011;53960;51.826;5.850;2023-11-21T09:39:18;26.48;;;11.90;;
67053;SDS011;53960;51.826;5.850;2023-11-21T09:41:44;24.20;;;11.93;;
67053;SDS011;53960;51.826;5.850;2023-11-21T09:44:19;27.67;;;12.20;;
67053;SDS011;53960;51.826;5.850;2023-11-21T09:47:07;26.05;;;12.60;;
67053;SDS011;53960;51.826;5.850;2023-11-21T09:49:35;28.63;;;12.27;;
67053;SDS011;53960;51.826;5.850;2023-11-21T09:52:02;26.30;;;13.10;;
67053;SDS011;53960;51.826;5.850;2023-11-21T09:54:28;29.10;;;13.00;;
67053;SDS011;53960;51.826;5.850;2023-11-21T09:56:56;28.73;;;13.00;;
67053;SDS011;53960;51.826;5.850;2023-11-21T09:59:23;28.52;;;12.18;;
67053;SDS011;53960;51.826;5.850;2023-11-21T10:01:48;29.45;;;13.45;;
67053;SDS011;53960;51.826;5.850;2023-11-21T10:04:15;28.87;;;12.73;;
67053;SDS011;53960;51.826;5.850;2023-11-21T10:06:42;26.88;;;12.13;;
67053;SDS011;53960;51.826;5.850;2023-11-21T10:09:11;33.20;;;11.98;;
67053;SDS011;53960;51.826;5.850;2023-11-21T10:11:39;35.10;;;12.73;;
67053;SDS011;53960;51.826;5.850;2023-11-21T10:14:06;30.05;;;13.25;;
67053;SDS011;53960;51.826;5.850;2023-11-21T10:16:35;36.30;;;13.87;;
67053;SDS011;53960;51.826;5.850;2023-11-21T10:19:03;33.75;;;14.10;;
67053;SDS011;53960;51.826;5.850;2023-11-21T10:21:31;32.08;;;12.55;;
67053;SDS011;53960;51.826;5.850;2023-11-21T10:23:58;25.70;;;11.48;;
67053;SDS011;53960;51.826;5.850;2023-11-21T10:26:23;30.53;;;13.10;;
67053;SDS011;53960;51.826;5.850;2023-11-21T10:28:57;36.08;;;13.85;;
67053;SDS011;53960;51.826;5.850;2023-11-21T10:31:24;30.77;;;13.40;;
67053;SDS011;53960;51.826;5.850;2023-11-21T10:33:52;34.07;;;14.13;;
67053;SDS011;53960;51.826;5.850;2023-11-21T10:36:27;31.63;;;12.52;;
67053;SDS011;53960;51.826;5.850;2023-11-21T10:38:54;34.63;;;13.25;;
67053;SDS011;53960;51.826;5.850;2023-11-21T10:41:20;31.93;;;13.50;;
67053;SDS011;53960;51.826;5.850;2023-11-21T10:43:46;42.90;;;14.73;;
67053;SDS011;53960;51.826;5.850;2023-11-21T10:46:13;39.42;;;13.73;;
67053;SDS011;53960;51.826;5.850;2023-11-21T10:48:39;36.33;;;13.03;;
67053;SDS011;53960;51.826;5.850;2023-11-21T10:51:07;34.78;;;13.85;;
67053;SDS011;53960;51.826;5.850;2023-11-21T10:53:34;37.78;;;14.88;;
67053;SDS011;53960;51.826;5.850;2023-11-21T10:56:05;38.97;;;13.88;;
67053;SDS011;53960;51.826;5.850;2023-11-21T10:58:42;36.60;;;14.48;;
67053;SDS011;53960;51.826;5.850;2023-11-21T11:01:08;32.40;;;12.83;;
67053;SDS011;53960;51.826;5.850;2023-11-21T11:03:37;31.13;;;12.38;;
67053;SDS011;53960;51.826;5.850;2023-11-21T11:06:04;31.17;;;13.27;;
67053;SDS011;53960;51.826;5.850;2023-11-21T11:08:32;33.17;;;13.15;;
67053;SDS011;53960;51.826;5.850;2023-11-21T11:11:00;28.60;;;12.80;;
67053;SDS011;53960;51.826;5.850;2023-11-21T11:13:25;34.20;;;13.23;;
67053;SDS011;53960;51.826;5.850;2023-11-21T11:15:51;32.70;;;13.00;;
67053;SDS011;53960;51.826;5.850;2023-11-21T11:18:26;32.42;;;13.25;;
67053;SDS011;53960;51.826;5.850;2023-11-21T11:20:57;29.20;;;12.13;;
67053;SDS011;53960;51.826;5.850;2023-11-21T11:32:10;26.83;;;11.57;;
67053;SDS011;53960;51.826;5.850;2023-11-21T11:34:47;29.77;;;12.85;;
67053;SDS011;53960;51.826;5.850;2023-11-21T11:37:19;30.42;;;12.15;;
67053;SDS011;53960;51.826;5.850;2023-11-21T11:39:46;32.87;;;12.47;;
67053;SDS011;53960;51.826;5.850;2023-11-21T11:42:12;32.22;;;12.80;;
67053;SDS011;53960;51.826;5.850;2023-11-21T11:47:16;39.83;;;13.25;;
67053;SDS011;53960;51.826;5.850;2023-11-21T11:55:00;28.02;;;12.30;;
67053;SDS011;53960;51.826;5.850;2023-11-21T11:57:26;27.98;;;11.30;;
67053;SDS011;53960;51.826;5.850;2023-11-21T12:02:45;32.00;;;11.87;;
67053;SDS011;53960;51.826;5.850;2023-11-21T12:05:13;27.35;;;10.88;;
67053;SDS011;53960;51.826;5.850;2023-11-21T12:07:50;26.23;;;10.75;;
67053;SDS011;53960;51.826;5.850;2023-11-21T12:10:23;23.52;;;9.82;;
67053;SDS011;53960;51.826;5.850;2023-11-21T12:13:11;21.98;;;9.60;;
67053;SDS011;53960;51.826;5.850;2023-11-21T12:15:37;24.07;;;9.50;;
67053;SDS011;53960;51.826;5.850;2023-11-21T12:18:03;24.85;;;9.75;;
67053;SDS011;53960;51.826;5.850;2023-11-21T12:20:29;26.30;;;10.27;;
67053;SDS011;53960;51.826;5.850;2023-11-21T12:22:56;24.00;;;9.77;;
67053;SDS011;53960;51.826;5.850;2023-11-21T12:25:28;23.67;;;9.38;;
67053;SDS011;53960;51.826;5.850;2023-11-21T12:27:57;23.80;;;9.93;;
67053;SDS011;53960;51.826;5.850;2023-11-21T12:30:23;22.55;;;9.35;;
67053;SDS011;53960;51.826;5.850;2023-11-21T12:32:53;21.55;;;9.60;;
67053;SDS011;53960;51.826;5.850;2023-11-21T12:35:32;19.27;;;8.07;;
67053;SDS011;53960;51.826;5.850;2023-11-21T12:37:59;22.75;;;8.77;;
67053;SDS011;53960;51.826;5.850;2023-11-21T12:40:26;16.30;;;6.53;;
67053;SDS011;53960;51.826;5.850;2023-11-21T12:42:53;16.08;;;6.32;;
67053;SDS011;53960;51.826;5.850;2023-11-21T12:45:23;18.02;;;6.65;;
67053;SDS011;53960;51.826;5.850;2023-11-21T12:48:02;18.33;;;6.23;;
67053;SDS011;53960;51.826;5.850;2023-11-21T12:50:32;17.75;;;6.57;;
67053;SDS011;53960;51.826;5.850;2023-11-21T12:53:02;14.45;;;5.78;;
67053;SDS011;53960;51.826;5.850;2023-11-21T12:55:30;14.93;;;6.05;;
67053;SDS011;53960;51.826;5.850;2023-11-21T12:57:59;14.20;;;5.10;;
67053;SDS011;53960;51.826;5.850;2023-11-21T13:00:37;14.17;;;6.07;;
67053;SDS011;53960;51.826;5.850;2023-11-21T13:03:05;14.07;;;5.50;;
67053;SDS011;53960;51.826;5.850;2023-11-21T13:05:35;15.75;;;6.18;;
67053;SDS011;53960;51.826;5.850;2023-11-21T13:08:04;15.57;;;6.57;;
67053;SDS011;53960;51.826;5.850;2023-11-21T13:10:33;16.73;;;6.57;;
67053;SDS011;53960;51.826;5.850;2023-11-21T13:13:01;15.53;;;5.77;;
67053;SDS011;53960;51.826;5.850;2023-11-21T13:15:38;14.65;;;6.13;;
67053;SDS011;53960;51.826;5.850;2023-11-21T13:18:06;14.88;;;4.80;;
67053;SDS011;53960;51.826;5.850;2023-11-21T13:20:32;14.35;;;5.78;;
67053;SDS011;53960;51.826;5.850;2023-11-21T13:22:57;13.87;;;5.63;;
67053;SDS011;53960;51.826;5.850;2023-11-21T13:25:29;16.70;;;6.60;;
67053;SDS011;53960;51.826;5.850;2023-11-21T13:27:56;13.95;;;5.93;;
67053;SDS011;53960;51.826;5.850;2023-11-21T13:30:22;16.58;;;6.60;;
67053;SDS011;53960;51.826;5.850;2023-11-21T13:32:51;18.73;;;6.70;;
67053;SDS011;53960;51.826;5.850;2023-11-21T13:35:19;18.27;;;6.90;;
67053;SDS011;53960;51.826;5.850;2023-11-21T13:37:56;20.35;;;8.75;;
67053;SDS011;53960;51.826;5.850;2023-11-21T13:40:25;20.60;;;8.73;;
67053;SDS011;53960;51.826;5.850;2023-11-21T13:42:54;23.87;;;9.60;;
67053;SDS011;53960;51.826;5.850;2023-11-21T13:45:23;23.20;;;9.43;;
67053;SDS011;53960;51.826;5.850;2023-11-21T13:47:50;23.73;;;10.52;;
67053;SDS011;53960;51.826;5.850;2023-11-21T13:50:17;27.05;;;9.70;;
67053;SDS011;53960;51.826;5.850;2023-11-21T13:52:47;22.90;;;9.13;;
67053;SDS011;53960;51.826;5.850;2023-11-21T13:55:13;23.20;;;10.10;;
67053;SDS011;53960;51.826;5.850;2023-11-21T13:57:41;25.25;;;10.43;;
67053;SDS011;53960;51.826;5.850;2023-11-21T14:00:14;24.10;;;10.20;;
67053;SDS011;53960;51.826;5.850;2023-11-21T14:03:01;23.77;;;10.00;;
67053;SDS011;53960;51.826;5.850;2023-11-21T14:05:27;26.63;;;9.87;;
67053;SDS011;53960;51.826;5.850;2023-11-21T14:07:56;21.13;;;9.68;;
67053;SDS011;53960;51.826;5.850;2023-11-21T14:10:28;24.70;;;9.60;;
67053;SDS011;53960;51.826;5.850;2023-11-21T14:13:08;22.33;;;10.00;;
67053;SDS011;53960;51.826;5.850;2023-11-21T14:15:35;23.77;;;9.98;;
67053;SDS011;53960;51.826;5.850;2023-11-21T14:18:06;23.30;;;9.37;;
67053;SDS011;53960;51.826;5.850;2023-11-21T14:20:35;24.63;;;9.15;;
67053;SDS011;53960;51.826;5.850;2023-11-21T14:23:02;23.55;;;9.38;;
67053;SDS011;53960;51.826;5.850;2023-11-21T14:25:32;23.13;;;9.18;;
67053;SDS011;53960;51.826;5.850;2023-11-21T14:27:59;25.60;;;10.10;;
67053;SDS011;53960;51.826;5.850;2023-11-21T14:30:24;23.77;;;9.70;;
67053;SDS011;53960;51.826;5.850;2023-11-21T14:32:52;24.33;;;9.93;;
67053;SDS011;53960;51.826;5.850;2023-11-21T14:35:17;23.93;;;9.73;;
67053;SDS011;53960;51.826;5.850;2023-11-21T14:37:43;23.37;;;9.13;;
67053;SDS011;53960;51.826;5.850;2023-11-21T14:40:08;21.45;;;8.85;;
67053;SDS011;53960;51.826;5.850;2023-11-21T14:42:34;20.30;;;7.43;;
67053;SDS011;53960;51.826;5.850;2023-11-21T14:45:02;20.65;;;7.40;;
67053;SDS011;53960;51.826;5.850;2023-11-21T14:47:31;19.02;;;6.47;;